Arcola, Illinois
Current Conditions -  °F | °C
As of 1:53 PM on Sunday 21 Dec 2014 (Local Time) from KMTO Reporting Station
Clear Clear  
Wind Chill: 35°   Ceiling: Unl
Heat Index: 41°   Visibility: 10mi
Dew Point: 30°   Wind: 10mph
Humidity: 65%   Direction: 140°SE
Pressure: 30.11"   Gusts: NA
Location:  39.68°N, 88.31°W
Report Text: KMTO 211953Z AUTO 14009KT 10SM CLR 05/M01 A3011 RMK AO2 SLP201 T00501011
Loading
Personal Weather Stations






























Interactive Weather Map New forecast layout! Learn more

10-Day Weather Forecast

Advertisements
Track Severe Weather on mobile